Terminal Aerodrome Forecast
Issued by NWS Rapid City, SD

Home | Current Version | Previous Version | Graphics & Text | Print | Product List | Glossary On
Versions: 1 2 3 4 5 6 7 8 9 10 11 12 13 14 15
028
FTUS43 KUNR 020406 AAA
TAFRAP
TAF AMD
KRAP 020406Z 0204/0224 VRB05KT P6SM BKN070
     FM020600 VRB05KT P6SM OVC015
     FM020900 VRB05KT 3SM BR OVC009
     FM021400 VRB05KT P6SM SCT040=

USA.gov is the U.S. government's official web portal to all federal, state and local government web resources and services.